sensor_id;sensor_type;location;lat;lon;timestamp;temperature;humidity
22288;DHT22;11312;51.464;6.968;2023-09-07T00:00:35;19.70;99.90
22288;DHT22;11312;51.464;6.968;2023-09-07T00:03:01;19.80;99.90
22288;DHT22;11312;51.464;6.968;2023-09-07T00:05:27;19.60;99.90
22288;DHT22;11312;51.464;6.968;2023-09-07T00:07:52;19.60;99.90
22288;DHT22;11312;51.464;6.968;2023-09-07T00:10:18;19.60;99.90
22288;DHT22;11312;51.464;6.968;2023-09-07T00:12:44;19.50;99.90
22288;DHT22;11312;51.464;6.968;2023-09-07T00:15:10;19.30;99.90
22288;DHT22;11312;51.464;6.968;2023-09-07T00:17:36;19.50;99.90
22288;DHT22;11312;51.464;6.968;2023-09-07T00:20:02;19.60;99.90
22288;DHT22;11312;51.464;6.968;2023-09-07T00:22:39;19.40;99.90
22288;DHT22;11312;51.464;6.968;2023-09-07T00:25:05;19.40;99.90
22288;DHT22;11312;51.464;6.968;2023-09-07T00:27:35;19.40;99.90
22288;DHT22;11312;51.464;6.968;2023-09-07T00:30:02;19.30;99.90
22288;DHT22;11312;51.464;6.968;2023-09-07T00:32:29;19.30;99.90
22288;DHT22;11312;51.464;6.968;2023-09-07T00:34:55;19.20;99.90
22288;DHT22;11312;51.464;6.968;2023-09-07T00:37:21;19.30;99.90
22288;DHT22;11312;51.464;6.968;2023-09-07T00:39:46;19.20;99.90
22288;DHT22;11312;51.464;6.968;2023-09-07T00:42:12;19.30;99.90
22288;DHT22;11312;51.464;6.968;2023-09-07T00:44:37;19.20;99.90
22288;DHT22;11312;51.464;6.968;2023-09-07T00:47:03;19.10;99.90
22288;DHT22;11312;51.464;6.968;2023-09-07T00:49:30;19.10;99.90
22288;DHT22;11312;51.464;6.968;2023-09-07T00:51:56;19.10;99.90
22288;DHT22;11312;51.464;6.968;2023-09-07T00:54:23;19.00;99.90
22288;DHT22;11312;51.464;6.968;2023-09-07T00:56:49;19.10;99.90
22288;DHT22;11312;51.464;6.968;2023-09-07T00:59:14;19.10;99.90
22288;DHT22;11312;51.464;6.968;2023-09-07T01:01:40;19.00;99.90
22288;DHT22;11312;51.464;6.968;2023-09-07T01:04:07;19.00;99.90
22288;DHT22;11312;51.464;6.968;2023-09-07T01:06:39;18.90;99.90
22288;DHT22;11312;51.464;6.968;2023-09-07T01:09:14;18.80;99.90
22288;DHT22;11312;51.464;6.968;2023-09-07T01:11:40;18.80;99.90
22288;DHT22;11312;51.464;6.968;2023-09-07T01:14:05;18.80;99.90
22288;DHT22;11312;51.464;6.968;2023-09-07T01:16:32;18.70;99.90
22288;DHT22;11312;51.464;6.968;2023-09-07T01:19:00;18.70;99.90
22288;DHT22;11312;51.464;6.968;2023-09-07T01:21:26;18.70;99.90
22288;DHT22;11312;51.464;6.968;2023-09-07T01:23:54;18.60;99.90
22288;DHT22;11312;51.464;6.968;2023-09-07T01:26:20;18.70;99.90
22288;DHT22;11312;51.464;6.968;2023-09-07T01:28:46;18.70;99.90
22288;DHT22;11312;51.464;6.968;2023-09-07T01:31:12;18.60;99.90
22288;DHT22;11312;51.464;6.968;2023-09-07T01:33:38;18.50;99.90
22288;DHT22;11312;51.464;6.968;2023-09-07T01:36:03;18.50;99.90
22288;DHT22;11312;51.464;6.968;2023-09-07T01:38:29;18.70;99.90
22288;DHT22;11312;51.464;6.968;2023-09-07T01:40:55;18.60;99.90
22288;DHT22;11312;51.464;6.968;2023-09-07T01:43:20;18.50;99.90
22288;DHT22;11312;51.464;6.968;2023-09-07T01:45:46;18.40;99.90
22288;DHT22;11312;51.464;6.968;2023-09-07T01:48:13;18.40;99.90
22288;DHT22;11312;51.464;6.968;2023-09-07T01:50:39;18.40;99.90
22288;DHT22;11312;51.464;6.968;2023-09-07T01:53:04;18.50;99.90
22288;DHT22;11312;51.464;6.968;2023-09-07T01:55:33;18.50;99.90
22288;DHT22;11312;51.464;6.968;2023-09-07T01:57:59;18.30;99.90
22288;DHT22;11312;51.464;6.968;2023-09-07T02:00:24;18.30;99.90
22288;DHT22;11312;51.464;6.968;2023-09-07T02:02:50;18.30;99.90
22288;DHT22;11312;51.464;6.968;2023-09-07T02:05:16;18.30;99.90
22288;DHT22;11312;51.464;6.968;2023-09-07T02:07:42;18.30;99.90
22288;DHT22;11312;51.464;6.968;2023-09-07T02:10:08;18.30;99.90
22288;DHT22;11312;51.464;6.968;2023-09-07T02:12:34;18.20;99.90
22288;DHT22;11312;51.464;6.968;2023-09-07T02:15:02;18.10;99.90
22288;DHT22;11312;51.464;6.968;2023-09-07T02:17:28;18.00;99.90
22288;DHT22;11312;51.464;6.968;2023-09-07T02:19:53;18.10;99.90
22288;DHT22;11312;51.464;6.968;2023-09-07T02:22:19;18.00;99.90
22288;DHT22;11312;51.464;6.968;2023-09-07T02:24:45;18.10;99.90
22288;DHT22;11312;51.464;6.968;2023-09-07T02:27:10;18.00;99.90
22288;DHT22;11312;51.464;6.968;2023-09-07T02:29:36;18.10;99.90
22288;DHT22;11312;51.464;6.968;2023-09-07T02:32:02;18.00;99.90
22288;DHT22;11312;51.464;6.968;2023-09-07T02:34:28;18.00;99.90
22288;DHT22;11312;51.464;6.968;2023-09-07T02:36:55;18.00;99.90
22288;DHT22;11312;51.464;6.968;2023-09-07T02:39:22;18.00;99.90
22288;DHT22;11312;51.464;6.968;2023-09-07T02:41:52;18.00;99.90
22288;DHT22;11312;51.464;6.968;2023-09-07T02:44:17;18.00;99.90
22288;DHT22;11312;51.464;6.968;2023-09-07T02:46:43;17.90;99.90
22288;DHT22;11312;51.464;6.968;2023-09-07T02:49:09;17.90;99.90
22288;DHT22;11312;51.464;6.968;2023-09-07T02:51:35;17.90;99.90
22288;DHT22;11312;51.464;6.968;2023-09-07T02:54:01;17.90;99.90
22288;DHT22;11312;51.464;6.968;2023-09-07T02:56:28;17.80;99.90
22288;DHT22;11312;51.464;6.968;2023-09-07T02:58:53;17.80;99.90
22288;DHT22;11312;51.464;6.968;2023-09-07T03:01:19;17.80;99.90
22288;DHT22;11312;51.464;6.968;2023-09-07T03:03:46;17.80;99.90
22288;DHT22;11312;51.464;6.968;2023-09-07T03:06:13;17.70;99.90
22288;DHT22;11312;51.464;6.968;2023-09-07T03:08:39;17.70;99.90
22288;DHT22;11312;51.464;6.968;2023-09-07T03:11:06;17.80;99.90
22288;DHT22;11312;51.464;6.968;2023-09-07T03:13:32;17.80;99.90
22288;DHT22;11312;51.464;6.968;2023-09-07T03:15:58;17.70;99.90
22288;DHT22;11312;51.464;6.968;2023-09-07T03:18:24;17.70;99.90
22288;DHT22;11312;51.464;6.968;2023-09-07T03:20:54;17.60;99.90
22288;DHT22;11312;51.464;6.968;2023-09-07T03:23:21;17.70;99.90
22288;DHT22;11312;51.464;6.968;2023-09-07T03:25:47;17.60;99.90
22288;DHT22;11312;51.464;6.968;2023-09-07T03:28:13;17.60;99.90
22288;DHT22;11312;51.464;6.968;2023-09-07T03:30:38;17.60;99.90
22288;DHT22;11312;51.464;6.968;2023-09-07T03:33:05;17.40;99.90
22288;DHT22;11312;51.464;6.968;2023-09-07T03:35:31;17.50;99.90
22288;DHT22;11312;51.464;6.968;2023-09-07T03:37:56;17.30;99.90
22288;DHT22;11312;51.464;6.968;2023-09-07T03:40:22;17.40;99.90
22288;DHT22;11312;51.464;6.968;2023-09-07T03:42:49;17.30;99.90
22288;DHT22;11312;51.464;6.968;2023-09-07T03:45:14;17.40;99.90
22288;DHT22;11312;51.464;6.968;2023-09-07T03:47:40;17.50;99.90
22288;DHT22;11312;51.464;6.968;2023-09-07T03:50:06;17.40;99.90
22288;DHT22;11312;51.464;6.968;2023-09-07T03:52:32;17.40;99.90
22288;DHT22;11312;51.464;6.968;2023-09-07T03:54:59;17.30;99.90
22288;DHT22;11312;51.464;6.968;2023-09-07T03:57:25;17.20;99.90
22288;DHT22;11312;51.464;6.968;2023-09-07T03:59:51;17.30;99.90
22288;DHT22;11312;51.464;6.968;2023-09-07T04:02:17;17.30;99.90
22288;DHT22;11312;51.464;6.968;2023-09-07T04:04:55;17.20;99.90
22288;DHT22;11312;51.464;6.968;2023-09-07T04:07:21;17.10;99.90
22288;DHT22;11312;51.464;6.968;2023-09-07T04:09:46;17.10;99.90
22288;DHT22;11312;51.464;6.968;2023-09-07T04:12:12;17.10;99.90
22288;DHT22;11312;51.464;6.968;2023-09-07T04:14:38;17.10;99.90
22288;DHT22;11312;51.464;6.968;2023-09-07T04:17:04;17.00;99.90
22288;DHT22;11312;51.464;6.968;2023-09-07T04:19:30;17.00;99.90
22288;DHT22;11312;51.464;6.968;2023-09-07T04:21:57;16.90;99.90
22288;DHT22;11312;51.464;6.968;2023-09-07T04:24:23;16.90;99.90
22288;DHT22;11312;51.464;6.968;2023-09-07T04:26:48;16.90;99.90
22288;DHT22;11312;51.464;6.968;2023-09-07T04:29:15;16.90;99.90
22288;DHT22;11312;51.464;6.968;2023-09-07T04:31:41;16.90;99.90
22288;DHT22;11312;51.464;6.968;2023-09-07T04:34:07;16.80;99.90
22288;DHT22;11312;51.464;6.968;2023-09-07T04:36:33;16.80;99.90
22288;DHT22;11312;51.464;6.968;2023-09-07T04:38:58;16.80;99.90
22288;DHT22;11312;51.464;6.968;2023-09-07T04:41:24;16.70;99.90
22288;DHT22;11312;51.464;6.968;2023-09-07T04:43:50;16.70;99.90
22288;DHT22;11312;51.464;6.968;2023-09-07T04:46:15;16.70;99.90
22288;DHT22;11312;51.464;6.968;2023-09-07T04:48:41;16.70;99.90
22288;DHT22;11312;51.464;6.968;2023-09-07T04:51:08;16.70;99.90
22288;DHT22;11312;51.464;6.968;2023-09-07T04:53:38;16.70;99.90
22288;DHT22;11312;51.464;6.968;2023-09-07T04:56:06;16.70;99.90
22288;DHT22;11312;51.464;6.968;2023-09-07T04:58:32;16.70;99.90
22288;DHT22;11312;51.464;6.968;2023-09-07T05:01:05;16.70;99.90
22288;DHT22;11312;51.464;6.968;2023-09-07T05:03:30;16.60;99.90
22288;DHT22;11312;51.464;6.968;2023-09-07T05:05:56;16.60;99.90
22288;DHT22;11312;51.464;6.968;2023-09-07T05:08:22;16.70;99.90
22288;DHT22;11312;51.464;6.968;2023-09-07T05:11:01;16.70;99.90
22288;DHT22;11312;51.464;6.968;2023-09-07T05:13:27;16.80;99.90
22288;DHT22;11312;51.464;6.968;2023-09-07T05:15:54;16.80;99.90
22288;DHT22;11312;51.464;6.968;2023-09-07T05:18:20;16.80;99.90
22288;DHT22;11312;51.464;6.968;2023-09-07T05:20:46;16.70;99.90
22288;DHT22;11312;51.464;6.968;2023-09-07T05:23:15;16.80;99.90
22288;DHT22;11312;51.464;6.968;2023-09-07T05:25:48;16.70;99.90
22288;DHT22;11312;51.464;6.968;2023-09-07T05:28:14;16.80;99.90
22288;DHT22;11312;51.464;6.968;2023-09-07T05:30:41;16.70;99.90
22288;DHT22;11312;51.464;6.968;2023-09-07T05:33:09;16.60;99.90
22288;DHT22;11312;51.464;6.968;2023-09-07T05:35:35;16.70;99.90
22288;DHT22;11312;51.464;6.968;2023-09-07T05:38:01;16.70;99.90
22288;DHT22;11312;51.464;6.968;2023-09-07T05:40:27;16.70;99.90
22288;DHT22;11312;51.464;6.968;2023-09-07T05:42:52;16.70;99.90
22288;DHT22;11312;51.464;6.968;2023-09-07T05:45:18;16.70;99.90
22288;DHT22;11312;51.464;6.968;2023-09-07T05:47:44;16.70;99.90
22288;DHT22;11312;51.464;6.968;2023-09-07T05:50:09;16.70;99.90
22288;DHT22;11312;51.464;6.968;2023-09-07T05:52:35;16.70;99.90
22288;DHT22;11312;51.464;6.968;2023-09-07T05:55:00;16.70;99.90
22288;DHT22;11312;51.464;6.968;2023-09-07T05:57:28;16.70;99.90
22288;DHT22;11312;51.464;6.968;2023-09-07T05:59:54;16.80;99.90
22288;DHT22;11312;51.464;6.968;2023-09-07T06:02:19;16.90;99.90
22288;DHT22;11312;51.464;6.968;2023-09-07T06:04:45;17.00;99.90
22288;DHT22;11312;51.464;6.968;2023-09-07T06:07:11;17.00;99.90
22288;DHT22;11312;51.464;6.968;2023-09-07T06:09:36;17.20;99.90
22288;DHT22;11312;51.464;6.968;2023-09-07T06:12:03;17.20;99.90
22288;DHT22;11312;51.464;6.968;2023-09-07T06:14:28;17.40;99.90
22288;DHT22;11312;51.464;6.968;2023-09-07T06:16:54;17.60;99.90
22288;DHT22;11312;51.464;6.968;2023-09-07T06:19:20;17.70;99.90
22288;DHT22;11312;51.464;6.968;2023-09-07T06:21:45;18.00;99.90
22288;DHT22;11312;51.464;6.968;2023-09-07T06:24:11;18.20;99.90
22288;DHT22;11312;51.464;6.968;2023-09-07T06:26:36;18.60;99.90
22288;DHT22;11312;51.464;6.968;2023-09-07T06:29:02;18.90;99.90
22288;DHT22;11312;51.464;6.968;2023-09-07T06:31:28;19.50;99.90
22288;DHT22;11312;51.464;6.968;2023-09-07T06:33:54;19.90;99.90
22288;DHT22;11312;51.464;6.968;2023-09-07T06:36:20;20.40;99.90
22288;DHT22;11312;51.464;6.968;2023-09-07T06:38:45;20.70;90.00
22288;DHT22;11312;51.464;6.968;2023-09-07T06:41:11;21.00;1.00
22288;DHT22;11312;51.464;6.968;2023-09-07T06:43:37;21.50;99.90
22288;DHT22;11312;51.464;6.968;2023-09-07T06:46:06;22.00;99.90
22288;DHT22;11312;51.464;6.968;2023-09-07T06:48:33;22.50;99.90
22288;DHT22;11312;51.464;6.968;2023-09-07T06:51:03;22.70;99.90
22288;DHT22;11312;51.464;6.968;2023-09-07T06:53:29;22.80;99.90
22288;DHT22;11312;51.464;6.968;2023-09-07T06:56:02;23.30;99.90
22288;DHT22;11312;51.464;6.968;2023-09-07T06:58:28;23.70;99.90
22288;DHT22;11312;51.464;6.968;2023-09-07T07:00:58;23.90;99.90
22288;DHT22;11312;51.464;6.968;2023-09-07T07:03:28;24.10;99.90
22288;DHT22;11312;51.464;6.968;2023-09-07T07:05:54;24.20;99.90
22288;DHT22;11312;51.464;6.968;2023-09-07T07:08:20;24.20;99.90
22288;DHT22;11312;51.464;6.968;2023-09-07T07:10:45;24.30;99.90
22288;DHT22;11312;51.464;6.968;2023-09-07T07:13:11;24.50;99.90
22288;DHT22;11312;51.464;6.968;2023-09-07T07:15:37;24.40;99.90
22288;DHT22;11312;51.464;6.968;2023-09-07T07:18:03;24.80;99.90
22288;DHT22;11312;51.464;6.968;2023-09-07T07:20:34;25.10;99.90
22288;DHT22;11312;51.464;6.968;2023-09-07T07:23:00;25.30;99.90
22288;DHT22;11312;51.464;6.968;2023-09-07T07:25:26;25.20;99.90
22288;DHT22;11312;51.464;6.968;2023-09-07T07:27:51;25.50;99.90
22288;DHT22;11312;51.464;6.968;2023-09-07T07:30:17;25.80;99.90
22288;DHT22;11312;51.464;6.968;2023-09-07T07:32:42;25.80;99.90
22288;DHT22;11312;51.464;6.968;2023-09-07T07:35:08;25.90;99.90
22288;DHT22;11312;51.464;6.968;2023-09-07T07:37:34;26.40;99.90
22288;DHT22;11312;51.464;6.968;2023-09-07T07:39:59;26.40;99.90
22288;DHT22;11312;51.464;6.968;2023-09-07T07:42:25;26.30;99.90
22288;DHT22;11312;51.464;6.968;2023-09-07T07:44:51;26.40;99.90
22288;DHT22;11312;51.464;6.968;2023-09-07T07:47:16;26.80;99.90
22288;DHT22;11312;51.464;6.968;2023-09-07T07:49:42;27.10;99.90
22288;DHT22;11312;51.464;6.968;2023-09-07T07:52:08;26.90;99.90
22288;DHT22;11312;51.464;6.968;2023-09-07T07:54:33;27.20;99.90
22288;DHT22;11312;51.464;6.968;2023-09-07T07:56:59;27.30;99.90
22288;DHT22;11312;51.464;6.968;2023-09-07T07:59:25;27.40;99.90
22288;DHT22;11312;51.464;6.968;2023-09-07T08:01:50;27.40;99.90
22288;DHT22;11312;51.464;6.968;2023-09-07T08:04:16;27.40;99.90
22288;DHT22;11312;51.464;6.968;2023-09-07T08:06:41;27.80;99.90
22288;DHT22;11312;51.464;6.968;2023-09-07T08:09:07;28.30;99.90
22288;DHT22;11312;51.464;6.968;2023-09-07T08:11:33;28.40;99.90
22288;DHT22;11312;51.464;6.968;2023-09-07T08:14:00;28.30;99.90
22288;DHT22;11312;51.464;6.968;2023-09-07T08:16:27;28.30;99.90
22288;DHT22;11312;51.464;6.968;2023-09-07T08:18:52;28.40;99.90
22288;DHT22;11312;51.464;6.968;2023-09-07T08:21:18;28.60;99.90
22288;DHT22;11312;51.464;6.968;2023-09-07T08:23:44;28.70;99.90
22288;DHT22;11312;51.464;6.968;2023-09-07T08:26:09;29.00;99.90
22288;DHT22;11312;51.464;6.968;2023-09-07T08:28:36;29.00;99.90
22288;DHT22;11312;51.464;6.968;2023-09-07T08:31:01;29.40;99.90
22288;DHT22;11312;51.464;6.968;2023-09-07T08:33:30;29.30;99.90
22288;DHT22;11312;51.464;6.968;2023-09-07T08:36:00;28.30;99.90
22288;DHT22;11312;51.464;6.968;2023-09-07T08:38:26;27.70;99.90
22288;DHT22;11312;51.464;6.968;2023-09-07T08:40:54;27.20;99.90
22288;DHT22;11312;51.464;6.968;2023-09-07T08:43:23;26.90;99.90
22288;DHT22;11312;51.464;6.968;2023-09-07T08:45:51;27.00;99.90
22288;DHT22;11312;51.464;6.968;2023-09-07T08:48:24;27.00;99.90
22288;DHT22;11312;51.464;6.968;2023-09-07T08:50:51;27.30;99.90
22288;DHT22;11312;51.464;6.968;2023-09-07T08:53:18;27.80;99.90
22288;DHT22;11312;51.464;6.968;2023-09-07T08:55:45;27.90;99.90
22288;DHT22;11312;51.464;6.968;2023-09-07T08:58:11;28.20;99.90
22288;DHT22;11312;51.464;6.968;2023-09-07T09:00:37;28.40;99.90
22288;DHT22;11312;51.464;6.968;2023-09-07T09:03:04;28.60;99.90
22288;DHT22;11312;51.464;6.968;2023-09-07T09:05:30;28.90;99.90
22288;DHT22;11312;51.464;6.968;2023-09-07T09:08:04;28.90;99.90
22288;DHT22;11312;51.464;6.968;2023-09-07T09:10:30;28.70;99.90
22288;DHT22;11312;51.464;6.968;2023-09-07T09:12:55;28.60;99.90
22288;DHT22;11312;51.464;6.968;2023-09-07T09:15:22;28.70;99.90
22288;DHT22;11312;51.464;6.968;2023-09-07T09:17:48;28.90;99.90
22288;DHT22;11312;51.464;6.968;2023-09-07T09:20:39;29.00;99.90
22288;DHT22;11312;51.464;6.968;2023-09-07T09:23:05;29.00;99.90
22288;DHT22;11312;51.464;6.968;2023-09-07T09:25:32;29.40;99.90
22288;DHT22;11312;51.464;6.968;2023-09-07T09:27:58;29.50;99.90
22288;DHT22;11312;51.464;6.968;2023-09-07T09:30:25;29.40;99.90
22288;DHT22;11312;51.464;6.968;2023-09-07T09:32:50;29.50;99.90
22288;DHT22;11312;51.464;6.968;2023-09-07T09:35:17;29.50;99.90
22288;DHT22;11312;51.464;6.968;2023-09-07T09:37:47;29.40;99.90
22288;DHT22;11312;51.464;6.968;2023-09-07T09:40:14;29.60;99.90
22288;DHT22;11312;51.464;6.968;2023-09-07T09:42:43;29.80;99.90
22288;DHT22;11312;51.464;6.968;2023-09-07T09:45:10;29.90;99.60
22288;DHT22;11312;51.464;6.968;2023-09-07T09:47:41;29.70;99.90
22288;DHT22;11312;51.464;6.968;2023-09-07T09:50:09;29.90;99.90
22288;DHT22;11312;51.464;6.968;2023-09-07T09:52:35;29.80;99.90
22288;DHT22;11312;51.464;6.968;2023-09-07T09:55:05;29.90;99.90
22288;DHT22;11312;51.464;6.968;2023-09-07T09:57:38;30.40;98.80
22288;DHT22;11312;51.464;6.968;2023-09-07T10:00:05;30.10;98.70
22288;DHT22;11312;51.464;6.968;2023-09-07T10:02:49;30.40;99.90
22288;DHT22;11312;51.464;6.968;2023-09-07T10:05:17;30.60;99.90
22288;DHT22;11312;51.464;6.968;2023-09-07T10:07:44;30.90;95.40
22288;DHT22;11312;51.464;6.968;2023-09-07T10:10:14;31.20;93.80
22288;DHT22;11312;51.464;6.968;2023-09-07T10:12:44;30.90;93.80
22288;DHT22;11312;51.464;6.968;2023-09-07T10:15:26;31.30;94.00
22288;DHT22;11312;51.464;6.968;2023-09-07T10:18:12;31.30;94.90
22288;DHT22;11312;51.464;6.968;2023-09-07T10:20:57;31.10;96.50
22288;DHT22;11312;51.464;6.968;2023-09-07T10:23:35;31.80;93.90
22288;DHT22;11312;51.464;6.968;2023-09-07T10:26:03;31.60;93.60
22288;DHT22;11312;51.464;6.968;2023-09-07T10:28:31;32.00;92.20
22288;DHT22;11312;51.464;6.968;2023-09-07T10:31:05;32.10;88.80
22288;DHT22;11312;51.464;6.968;2023-09-07T10:33:35;32.10;90.60
22288;DHT22;11312;51.464;6.968;2023-09-07T10:36:02;32.10;95.20
22288;DHT22;11312;51.464;6.968;2023-09-07T10:38:30;32.20;97.80
22288;DHT22;11312;51.464;6.968;2023-09-07T10:40:58;32.50;97.10
22288;DHT22;11312;51.464;6.968;2023-09-07T10:43:28;33.10;96.40
22288;DHT22;11312;51.464;6.968;2023-09-07T10:45:55;32.80;89.30
22288;DHT22;11312;51.464;6.968;2023-09-07T10:48:21;32.90;94.70
22288;DHT22;11312;51.464;6.968;2023-09-07T10:50:47;33.30;92.60
22288;DHT22;11312;51.464;6.968;2023-09-07T10:53:14;33.20;89.00
22288;DHT22;11312;51.464;6.968;2023-09-07T10:55:40;33.40;78.90
22288;DHT22;11312;51.464;6.968;2023-09-07T10:58:09;33.30;85.40
22288;DHT22;11312;51.464;6.968;2023-09-07T11:00:35;33.20;91.50
22288;DHT22;11312;51.464;6.968;2023-09-07T11:03:07;33.30;97.20
22288;DHT22;11312;51.464;6.968;2023-09-07T11:05:35;33.60;95.10
22288;DHT22;11312;51.464;6.968;2023-09-07T11:08:03;33.60;86.40
22288;DHT22;11312;51.464;6.968;2023-09-07T11:10:35;33.80;77.60
22288;DHT22;11312;51.464;6.968;2023-09-07T11:13:05;33.90;81.60
22288;DHT22;11312;51.464;6.968;2023-09-07T11:15:31;33.60;99.00
22288;DHT22;11312;51.464;6.968;2023-09-07T11:18:05;34.10;86.80
22288;DHT22;11312;51.464;6.968;2023-09-07T11:20:32;34.00;79.90
22288;DHT22;11312;51.464;6.968;2023-09-07T11:22:59;34.40;95.40
22288;DHT22;11312;51.464;6.968;2023-09-07T11:25:24;34.60;97.70
22288;DHT22;11312;51.464;6.968;2023-09-07T11:27:51;34.90;75.30
22288;DHT22;11312;51.464;6.968;2023-09-07T11:30:20;34.70;80.40
22288;DHT22;11312;51.464;6.968;2023-09-07T11:32:46;35.10;81.60
22288;DHT22;11312;51.464;6.968;2023-09-07T11:35:12;35.00;74.90
22288;DHT22;11312;51.464;6.968;2023-09-07T11:37:37;35.30;78.70
22288;DHT22;11312;51.464;6.968;2023-09-07T11:40:04;35.60;71.80
22288;DHT22;11312;51.464;6.968;2023-09-07T11:42:36;35.70;78.00
22288;DHT22;11312;51.464;6.968;2023-09-07T11:45:02;36.60;96.50
22288;DHT22;11312;51.464;6.968;2023-09-07T11:47:28;37.10;73.40
22288;DHT22;11312;51.464;6.968;2023-09-07T11:49:53;36.30;63.30
22288;DHT22;11312;51.464;6.968;2023-09-07T11:52:19;36.70;89.40
22288;DHT22;11312;51.464;6.968;2023-09-07T11:54:45;37.90;84.70
22288;DHT22;11312;51.464;6.968;2023-09-07T11:57:10;39.60;61.50
22288;DHT22;11312;51.464;6.968;2023-09-07T11:59:36;39.30;67.90
22288;DHT22;11312;51.464;6.968;2023-09-07T12:02:01;39.70;56.80
22288;DHT22;11312;51.464;6.968;2023-09-07T12:04:27;41.00;51.90
22288;DHT22;11312;51.464;6.968;2023-09-07T12:06:53;41.50;48.70
22288;DHT22;11312;51.464;6.968;2023-09-07T12:09:18;41.10;60.90
22288;DHT22;11312;51.464;6.968;2023-09-07T12:11:44;42.10;51.60
22288;DHT22;11312;51.464;6.968;2023-09-07T12:14:09;42.20;45.80
22288;DHT22;11312;51.464;6.968;2023-09-07T12:16:35;41.70;45.60
22288;DHT22;11312;51.464;6.968;2023-09-07T12:19:01;41.60;46.90
22288;DHT22;11312;51.464;6.968;2023-09-07T12:21:27;42.90;47.30
22288;DHT22;11312;51.464;6.968;2023-09-07T12:23:52;43.60;56.30
22288;DHT22;11312;51.464;6.968;2023-09-07T12:26:18;43.30;47.00
22288;DHT22;11312;51.464;6.968;2023-09-07T12:28:46;42.80;47.20
22288;DHT22;11312;51.464;6.968;2023-09-07T12:31:12;43.20;45.20
22288;DHT22;11312;51.464;6.968;2023-09-07T12:33:39;42.80;44.10
22288;DHT22;11312;51.464;6.968;2023-09-07T12:36:05;43.70;44.70
22288;DHT22;11312;51.464;6.968;2023-09-07T12:38:34;44.20;45.50
22288;DHT22;11312;51.464;6.968;2023-09-07T12:41:00;43.80;47.80
22288;DHT22;11312;51.464;6.968;2023-09-07T12:43:26;42.70;46.10
22288;DHT22;11312;51.464;6.968;2023-09-07T12:45:51;43.00;43.60
22288;DHT22;11312;51.464;6.968;2023-09-07T12:48:17;43.50;45.20
22288;DHT22;11312;51.464;6.968;2023-09-07T12:50:42;43.80;46.30
22288;DHT22;11312;51.464;6.968;2023-09-07T12:53:08;43.60;52.40
22288;DHT22;11312;51.464;6.968;2023-09-07T12:55:34;43.70;47.00
22288;DHT22;11312;51.464;6.968;2023-09-07T12:58:00;43.40;44.40
22288;DHT22;11312;51.464;6.968;2023-09-07T13:00:28;43.20;50.70
22288;DHT22;11312;51.464;6.968;2023-09-07T13:02:54;42.80;46.30
22288;DHT22;11312;51.464;6.968;2023-09-07T13:05:21;43.20;52.60
22288;DHT22;11312;51.464;6.968;2023-09-07T13:07:47;43.60;55.70
22288;DHT22;11312;51.464;6.968;2023-09-07T13:10:13;43.00;52.60
22288;DHT22;11312;51.464;6.968;2023-09-07T13:12:39;43.30;53.60
22288;DHT22;11312;51.464;6.968;2023-09-07T13:15:05;43.60;47.50
22288;DHT22;11312;51.464;6.968;2023-09-07T13:17:31;42.50;45.20
22288;DHT22;11312;51.464;6.968;2023-09-07T13:19:56;43.00;47.80
22288;DHT22;11312;51.464;6.968;2023-09-07T13:22:22;42.80;45.90
22288;DHT22;11312;51.464;6.968;2023-09-07T13:24:49;41.70;47.30
22288;DHT22;11312;51.464;6.968;2023-09-07T13:27:15;42.30;48.60
22288;DHT22;11312;51.464;6.968;2023-09-07T13:29:41;42.30;42.50
22288;DHT22;11312;51.464;6.968;2023-09-07T13:32:06;42.60;50.40
22288;DHT22;11312;51.464;6.968;2023-09-07T13:34:32;42.80;45.20
22288;DHT22;11312;51.464;6.968;2023-09-07T13:36:58;41.90;43.70
22288;DHT22;11312;51.464;6.968;2023-09-07T13:39:24;41.60;44.10
22288;DHT22;11312;51.464;6.968;2023-09-07T13:41:49;41.60;49.70
22288;DHT22;11312;51.464;6.968;2023-09-07T13:44:15;42.00;44.30
22288;DHT22;11312;51.464;6.968;2023-09-07T13:46:42;41.80;44.80
22288;DHT22;11312;51.464;6.968;2023-09-07T13:49:09;41.20;51.90
22288;DHT22;11312;51.464;6.968;2023-09-07T13:51:35;41.60;49.60
22288;DHT22;11312;51.464;6.968;2023-09-07T13:54:07;41.20;52.90
22288;DHT22;11312;51.464;6.968;2023-09-07T13:56:33;41.30;52.20
22288;DHT22;11312;51.464;6.968;2023-09-07T13:58:59;40.90;48.50
22288;DHT22;11312;51.464;6.968;2023-09-07T14:01:25;40.60;52.00
22288;DHT22;11312;51.464;6.968;2023-09-07T14:03:52;40.70;52.80
22288;DHT22;11312;51.464;6.968;2023-09-07T14:06:17;40.40;51.00
22288;DHT22;11312;51.464;6.968;2023-09-07T14:08:45;41.00;56.20
22288;DHT22;11312;51.464;6.968;2023-09-07T14:11:11;40.60;53.90
22288;DHT22;11312;51.464;6.968;2023-09-07T14:13:37;40.50;52.70
22288;DHT22;11312;51.464;6.968;2023-09-07T14:16:04;40.20;48.40
22288;DHT22;11312;51.464;6.968;2023-09-07T14:18:30;39.60;49.50
22288;DHT22;11312;51.464;6.968;2023-09-07T14:20:55;39.60;47.00
22288;DHT22;11312;51.464;6.968;2023-09-07T14:23:24;39.70;51.70
22288;DHT22;11312;51.464;6.968;2023-09-07T14:25:51;39.50;50.60
22288;DHT22;11312;51.464;6.968;2023-09-07T14:28:17;39.20;50.90
22288;DHT22;11312;51.464;6.968;2023-09-07T14:30:43;39.30;55.00
22288;DHT22;11312;51.464;6.968;2023-09-07T14:33:08;38.60;53.80
22288;DHT22;11312;51.464;6.968;2023-09-07T14:35:34;39.20;50.20
22288;DHT22;11312;51.464;6.968;2023-09-07T14:38:00;39.00;55.00
22288;DHT22;11312;51.464;6.968;2023-09-07T14:40:26;38.50;54.60
22288;DHT22;11312;51.464;6.968;2023-09-07T14:42:52;37.80;56.10
22288;DHT22;11312;51.464;6.968;2023-09-07T14:45:19;36.80;60.00
22288;DHT22;11312;51.464;6.968;2023-09-07T14:47:44;35.70;62.00
22288;DHT22;11312;51.464;6.968;2023-09-07T14:50:10;35.10;63.00
22288;DHT22;11312;51.464;6.968;2023-09-07T14:52:36;34.40;67.70
22288;DHT22;11312;51.464;6.968;2023-09-07T14:55:07;33.80;70.30
22288;DHT22;11312;51.464;6.968;2023-09-07T14:57:33;33.60;65.80
22288;DHT22;11312;51.464;6.968;2023-09-07T14:59:59;33.60;69.00
22288;DHT22;11312;51.464;6.968;2023-09-07T15:02:25;33.10;68.80
22288;DHT22;11312;51.464;6.968;2023-09-07T15:04:51;33.10;67.00
22288;DHT22;11312;51.464;6.968;2023-09-07T15:07:17;33.00;67.90
22288;DHT22;11312;51.464;6.968;2023-09-07T15:09:44;33.10;63.30
22288;DHT22;11312;51.464;6.968;2023-09-07T15:12:09;33.00;66.10
22288;DHT22;11312;51.464;6.968;2023-09-07T15:14:36;33.00;68.80
22288;DHT22;11312;51.464;6.968;2023-09-07T15:17:02;32.70;65.70
22288;DHT22;11312;51.464;6.968;2023-09-07T15:19:28;32.50;63.10
22288;DHT22;11312;51.464;6.968;2023-09-07T15:21:55;32.30;65.60
22288;DHT22;11312;51.464;6.968;2023-09-07T15:24:21;32.00;67.30
22288;DHT22;11312;51.464;6.968;2023-09-07T15:26:47;31.80;67.60